»·PEaware :: AAL899 KPHX-KLAX

AAL899 :: KPHX-KLAX

FLIGHT INFORMATION

Flight Status: Arrived
Operator:
American Airlines
More flights by this operator :: More flights under this callsign
Pilot: John C. (18682)
Aircraft: AIRBUS A320
(A320)
More flights by this aircraft type
Origin: KPHX Phoenix Sky Harbor Intl
United States
Destination: KLAX Los Angeles Intl
United States
More flights between these airports :: More routes between these airports
Route: KEENS2 MESSI ESTWD HLYWD1
File this flight plan on PilotEdge
Remarks:
Altitude:
(Current/Filed)
32,000ft
Speed:
(Current/Filed)
454kts
Departed: 25-Nov-18 12:38 PM
Arrived: 25-Nov-18 01:38 PM
Distance/Time
Traveled:
321nm/1:00
Distance/Time
To Go:
Arrived

Flight Plot

Page will automatically refresh every two minutes.

Flight plan parsing failed; only flown route is shown


Map Options




Map Legend


Flown Route
Filed Route
Departure Airport
Arrival Airport
Navaid (VOR, NDB)
Fix

Horizontal Profiles

Position Reports

Time Latitude Longitude Heading Altitude Ground
Speed
25-Nov-18 12:19 33.437575 -111.998807 270 1132ft 0kts
25-Nov-18 12:20 33.437575 -111.998807 270 1132ft 0kts
25-Nov-18 12:21 33.437575 -111.998807 270 1132ft 0kts
25-Nov-18 12:22 33.437575 -111.998807 270 1132ft 0kts
25-Nov-18 12:23 33.437575 -111.998807 270 1132ft 0kts
25-Nov-18 12:24 33.437575 -111.998807 270 1132ft 0kts
25-Nov-18 12:25 33.437575 -111.998807 270 1132ft 0kts
25-Nov-18 12:26 33.437575 -111.998807 270 1132ft 0kts
25-Nov-18 12:27 33.437575 -111.998807 270 1132ft 0kts
25-Nov-18 12:28 33.437575 -111.998807 270 1132ft 0kts
25-Nov-18 12:29 33.437575 -111.998807 270 1132ft 0kts
25-Nov-18 12:30 33.437575 -111.998807 270 1132ft 0kts
25-Nov-18 12:31 33.437575 -111.998806 270 1132ft 0kts
25-Nov-18 12:32 33.437413 -111.998265 351 1133ft 1kts
25-Nov-18 12:33 33.437322 -111.998265 359 1133ft 0kts
25-Nov-18 12:34 33.437322 -111.998265 359 1133ft 0kts
25-Nov-18 12:35 33.438964 -111.998280 356 1135ft 11kts
25-Nov-18 12:36 33.439758 -112.002954 271 1131ft 19kts
25-Nov-18 12:37 33.439756 -112.009810 270 1128ft 24kts
25-Nov-18 12:38 33.439758 -112.016653 270 1125ft 18kts
25-Nov-18 12:39 33.439762 -112.023834 269 1118ft 23kts
25-Nov-18 12:40 33.440189 -112.029618 348 1115ft 10kts
25-Nov-18 12:41 33.440847 -112.013707 88 1220ft 162kts
25-Nov-18 12:42 33.438583 -111.952395 90 4367ft 221kts
25-Nov-18 12:43 33.431806 -111.874672 118 7863ft 257kts
25-Nov-18 12:44 33.368479 -111.856308 219 11432ft 271kts
25-Nov-18 12:45 33.357266 -111.938433 278 14726ft 275kts
25-Nov-18 12:46 33.368262 -112.041720 281 16034ft 349kts
25-Nov-18 12:47 33.386132 -112.162468 281 17946ft 379kts
25-Nov-18 12:48 33.404295 -112.285975 281 20116ft 390kts
25-Nov-18 12:49 33.419091 -112.386950 281 21678ft 398kts
25-Nov-18 12:50 33.442609 -112.548572 281 23846ft 410kts
25-Nov-18 12:51 33.451219 -112.676573 272 25330ft 421kts
25-Nov-18 12:52 33.459606 -112.816896 288 26792ft 426kts
25-Nov-18 12:53 33.504844 -112.948460 293 28173ft 432kts
25-Nov-18 12:54 33.551385 -113.081812 292 29402ft 439kts
25-Nov-18 12:55 33.598384 -113.217053 292 30886ft 436kts
25-Nov-18 12:56 33.644451 -113.350148 292 32101ft 432kts
25-Nov-18 12:57 33.690287 -113.483101 292 32111ft 431kts
25-Nov-18 12:58 33.735909 -113.615974 292 32123ft 432kts
25-Nov-18 12:59 33.780953 -113.747728 292 32144ft 432kts
25-Nov-18 13:00 33.826338 -113.880971 292 32149ft 432kts
25-Nov-18 13:01 33.871633 -114.014448 292 32146ft 431kts
25-Nov-18 13:02 33.911497 -114.150406 282 32139ft 432kts
25-Nov-18 13:03 33.935452 -114.291769 282 32138ft 432kts
25-Nov-18 13:04 33.957308 -114.421362 282 32136ft 431kts
25-Nov-18 13:05 33.981013 -114.562911 282 32136ft 431kts
25-Nov-18 13:06 34.003926 -114.700696 281 32137ft 432kts
25-Nov-18 13:07 34.027292 -114.842230 281 32143ft 432kts
25-Nov-18 13:08 34.050579 -114.984357 281 32144ft 432kts
25-Nov-18 13:09 34.073678 -115.126108 281 32148ft 431kts
25-Nov-18 13:10 34.096049 -115.264299 281 32172ft 430kts
25-Nov-18 13:11 34.118479 -115.403875 281 32224ft 430kts
25-Nov-18 13:12 34.141097 -115.545697 281 32234ft 430kts
25-Nov-18 13:13 34.161202 -115.680712 274 32235ft 430kts
25-Nov-18 13:14 34.151282 -115.820535 264 32250ft 432kts
25-Nov-18 13:15 34.137235 -115.964481 264 32240ft 431kts
25-Nov-18 13:16 34.123180 -116.107887 264 32232ft 431kts
25-Nov-18 13:17 34.109023 -116.250799 264 31592ft 430kts
25-Nov-18 13:18 34.096463 -116.372092 263 30195ft 420kts
25-Nov-18 13:19 34.081812 -116.508141 263 28149ft 404kts
25-Nov-18 13:20 34.068293 -116.638912 265 26304ft 386kts
25-Nov-18 13:21 34.056853 -116.763383 265 24366ft 374kts
25-Nov-18 13:22 34.045414 -116.884974 264 22423ft 363kts
25-Nov-18 13:23 34.030513 -117.001150 262 20546ft 352kts
25-Nov-18 13:24 34.017116 -117.110970 262 18758ft 342kts
25-Nov-18 13:25 34.004207 -117.219843 262 16970ft 331kts
25-Nov-18 13:26 33.991885 -117.322783 263 15260ft 322kts
25-Nov-18 13:27 33.980636 -117.418656 263 13664ft 315kts
25-Nov-18 13:28 33.976283 -117.510844 282 12392ft 299kts
25-Nov-18 13:29 33.988835 -117.581049 282 11247ft 295kts
25-Nov-18 13:30 34.005781 -117.679505 275 10096ft 274kts
25-Nov-18 13:31 33.998920 -117.764948 263 8986ft 265kts
25-Nov-18 13:32 33.992006 -117.835429 263 7988ft 260kts
25-Nov-18 13:33 33.983913 -117.918311 263 6844ft 255kts
25-Nov-18 13:34 33.975697 -118.001477 264 5714ft 252kts
25-Nov-18 13:35 33.969178 -118.081718 263 4843ft 241kts
25-Nov-18 13:36 33.961264 -118.153905 263 3887ft 235kts
25-Nov-18 13:37 33.952165 -118.240647 263 2404ft 209kts
25-Nov-18 13:38 33.947139 -118.288796 263 1641ft 153kts
25-Nov-18 13:39 33.942410 -118.334668 263 908ft 140kts
25-Nov-18 13:40 33.937855 -118.378367 262 223ft 138kts
25-Nov-18 13:41 33.935970 -118.402666 287 121ft 1kts
25-Nov-18 13:42 33.936030 -118.402890 288 121ft 0kts
25-Nov-18 13:43 33.936249 -118.404499 267 123ft 20kts
25-Nov-18 13:44 33.936990 -118.408949 357 127ft 15kts
25-Nov-18 13:45 33.939817 -118.408008 353 127ft 15kts
25-Nov-18 13:46 33.941099 -118.407699 70 124ft 5kts
25-Nov-18 13:47 33.941150 -118.407429 81 124ft 0kts
25-Nov-18 13:48 33.941150 -118.407429 81 124ft 0kts

Navigation Log

Ident Type
Flight plan parsing failed, navigation log unavailable